createdAt,value
2018-08-28T00:00:28.077Z,18.40
2018-08-28T00:05:31.127Z,18.40
2018-08-28T00:10:34.160Z,18.40
2018-08-28T00:15:37.301Z,18.30
2018-08-28T00:20:40.363Z,18.20
2018-08-28T00:25:43.485Z,18.20
2018-08-28T00:30:46.595Z,18.20
2018-08-28T00:35:49.731Z,18.30
2018-08-28T00:40:52.747Z,18.30
2018-08-28T00:45:55.909Z,18.20
2018-08-28T00:50:59.027Z,18.20
2018-08-28T00:56:02.125Z,18.10
2018-08-28T01:01:05.220Z,18.00
2018-08-28T01:06:08.308Z,18.00
2018-08-28T01:11:11.334Z,18.00
2018-08-28T01:16:14.428Z,18.00
2018-08-28T01:21:17.451Z,18.00
2018-08-28T01:26:20.516Z,18.00
2018-08-28T01:31:23.548Z,17.90
2018-08-28T01:36:26.547Z,17.90
2018-08-28T01:41:29.585Z,17.90
2018-08-28T01:46:32.656Z,17.90
2018-08-28T01:51:35.780Z,17.90
2018-08-28T01:56:38.959Z,17.80
2018-08-28T02:01:42.002Z,17.90
2018-08-28T02:06:45.036Z,17.80
2018-08-28T02:11:48.075Z,17.70
2018-08-28T02:16:51.104Z,17.70
2018-08-28T02:21:54.162Z,17.60
2018-08-28T02:26:57.192Z,17.60
2018-08-28T02:32:00.220Z,17.60
2018-08-28T02:37:03.248Z,17.50
2018-08-28T02:42:06.274Z,17.50
2018-08-28T02:47:09.412Z,17.50
2018-08-28T02:52:12.489Z,17.40
2018-08-28T02:57:15.502Z,17.30
2018-08-28T03:02:18.524Z,17.30
2018-08-28T03:07:21.548Z,17.30
2018-08-28T03:12:24.560Z,17.20
2018-08-28T03:17:27.572Z,17.20
2018-08-28T03:22:30.635Z,17.10
2018-08-28T03:27:33.666Z,17.10
2018-08-28T03:32:36.671Z,17.10
2018-08-28T03:37:39.693Z,17.00
2018-08-28T03:42:42.865Z,17.00
2018-08-28T03:47:45.901Z,16.90
2018-08-28T03:52:49.080Z,17.00
2018-08-28T03:57:52.108Z,17.10
2018-08-28T04:02:55.127Z,17.10
2018-08-28T04:07:58.288Z,17.10
2018-08-28T04:13:01.326Z,17.00
2018-08-28T04:18:04.356Z,17.00
2018-08-28T04:23:07.392Z,17.00
2018-08-28T04:28:10.412Z,17.00
2018-08-28T04:33:13.466Z,17.00
2018-08-28T04:38:16.494Z,17.10
2018-08-28T04:43:19.518Z,17.10
2018-08-28T04:48:22.545Z,17.00
2018-08-28T04:53:25.714Z,17.00
2018-08-28T04:58:28.786Z,17.00
2018-08-28T05:03:31.747Z,16.90
2018-08-28T05:08:34.924Z,17.00
2018-08-28T05:13:38.019Z,17.00
2018-08-28T05:18:41.042Z,16.90
2018-08-28T05:23:44.072Z,17.00
2018-08-28T05:28:47.082Z,16.90
2018-08-28T05:33:50.105Z,16.80
2018-08-28T05:38:53.173Z,17.00
2018-08-28T05:43:56.220Z,17.00
2018-08-28T05:48:59.252Z,16.90
2018-08-28T05:54:02.288Z,16.90
2018-08-28T05:59:05.335Z,16.90
2018-08-28T06:04:08.393Z,17.00
2018-08-28T06:09:11.945Z,16.90
2018-08-28T06:14:14.966Z,17.10
2018-08-28T06:19:18.078Z,17.10
2018-08-28T06:24:21.132Z,17.20
2018-08-28T06:29:24.215Z,17.30
2018-08-28T06:34:27.273Z,17.60
2018-08-28T06:39:30.297Z,17.40
2018-08-28T06:44:33.312Z,17.50
2018-08-28T06:49:36.421Z,17.70
2018-08-28T06:54:39.732Z,17.70
2018-08-28T06:59:42.856Z,17.70
2018-08-28T07:04:45.876Z,17.70
2018-08-28T07:09:48.900Z,17.80
2018-08-28T07:14:51.943Z,18.00
2018-08-28T07:19:55.033Z,18.20
2018-08-28T07:24:58.881Z,18.10
2018-08-28T07:30:01.925Z,18.20
2018-08-28T07:35:05.092Z,18.20
2018-08-28T07:40:08.120Z,18.50
2018-08-28T07:45:11.331Z,18.80
2018-08-28T07:50:14.365Z,18.80
2018-08-28T07:55:17.401Z,18.70
2018-08-28T08:00:20.425Z,18.90
2018-08-28T08:05:23.467Z,19.30
2018-08-28T08:10:26.525Z,19.10
2018-08-28T08:15:29.648Z,19.10
2018-08-28T08:20:32.849Z,19.20
2018-08-28T08:25:35.908Z,19.40
2018-08-28T08:30:38.996Z,19.60
2018-08-28T08:35:42.160Z,19.80
2018-08-28T08:40:46.681Z,19.70
2018-08-28T08:45:50.273Z,19.90
2018-08-28T08:50:53.671Z,20.40
2018-08-28T08:55:56.804Z,21.00
2018-08-28T09:00:59.865Z,21.00
2018-08-28T09:06:03.034Z,21.00
2018-08-28T09:11:06.095Z,21.70
2018-08-28T09:16:09.232Z,21.50
2018-08-28T09:21:12.344Z,21.30
2018-08-28T09:26:16.384Z,21.90
2018-08-28T09:31:19.482Z,21.50
2018-08-28T09:36:22.542Z,21.60
2018-08-28T09:41:25.675Z,21.60
2018-08-28T09:46:28.713Z,21.20
2018-08-28T09:51:31.783Z,21.40
2018-08-28T09:56:34.872Z,21.90
2018-08-28T10:01:42.702Z,22.70
2018-08-28T10:06:45.789Z,22.80
2018-08-28T10:11:48.892Z,23.20
2018-08-28T10:16:51.918Z,22.70
2018-08-28T10:21:54.947Z,23.00
2018-08-28T10:26:57.968Z,23.30
2018-08-28T10:32:00.988Z,24.00
2018-08-28T10:37:04.063Z,23.50
2018-08-28T10:42:07.114Z,23.60
2018-08-28T10:47:10.150Z,24.40
2018-08-28T10:52:13.156Z,24.10
2018-08-28T10:57:16.160Z,23.40
2018-08-28T11:02:19.169Z,24.20
2018-08-28T11:07:22.212Z,25.10
2018-08-28T11:12:25.245Z,25.70
2018-08-28T11:17:28.327Z,26.50
2018-08-28T11:22:31.386Z,26.40
2018-08-28T11:27:34.435Z,26.40
2018-08-28T11:32:37.472Z,26.20
2018-08-28T11:37:40.596Z,25.40
2018-08-28T11:42:43.664Z,25.20
2018-08-28T11:47:46.701Z,24.20
2018-08-28T11:52:49.732Z,23.60
2018-08-28T11:57:52.755Z,23.30
2018-08-28T12:02:55.864Z,22.80
2018-08-28T12:07:58.914Z,22.50
2018-08-28T12:13:01.992Z,22.70
2018-08-28T12:18:05.008Z,22.50
2018-08-28T12:23:08.068Z,22.70
2018-08-28T12:28:11.091Z,22.50
2018-08-28T12:33:14.153Z,22.40
2018-08-28T12:38:17.307Z,22.50
2018-08-28T12:43:20.450Z,22.40
2018-08-28T12:48:23.499Z,22.30
2018-08-28T12:53:26.524Z,22.60
2018-08-28T12:58:29.549Z,23.00
2018-08-28T13:03:32.574Z,22.80
2018-08-28T13:08:35.617Z,22.80
2018-08-28T13:13:38.636Z,23.00
2018-08-28T13:18:41.733Z,23.20
2018-08-28T13:23:44.808Z,23.30
2018-08-28T13:28:47.865Z,23.50
2018-08-28T13:33:50.893Z,23.30
2018-08-28T13:38:53.934Z,23.40
2018-08-28T13:43:57.183Z,23.30
2018-08-28T13:49:00.216Z,23.50
2018-08-28T13:54:03.381Z,23.40
2018-08-28T13:59:06.723Z,23.20
2018-08-28T14:04:09.754Z,23.70
2018-08-28T14:09:12.768Z,24.40
2018-08-28T14:14:15.886Z,24.80
2018-08-28T14:19:18.908Z,24.60
2018-08-28T14:24:22.122Z,24.10
2018-08-28T14:29:25.255Z,23.80
2018-08-28T14:34:28.175Z,24.10
2018-08-28T14:39:31.245Z,24.60
2018-08-28T14:44:34.328Z,24.40
2018-08-28T14:49:37.457Z,24.70
2018-08-28T14:54:40.516Z,24.90
2018-08-28T14:59:43.627Z,25.20
2018-08-28T15:04:46.676Z,25.10
2018-08-28T15:09:49.708Z,24.80
2018-08-28T15:14:52.760Z,24.40
2018-08-28T15:19:55.780Z,24.10
2018-08-28T15:24:58.832Z,23.80
2018-08-28T15:30:01.901Z,23.70
2018-08-28T15:35:04.921Z,23.70
2018-08-28T15:40:07.992Z,23.80
2018-08-28T15:45:11.016Z,23.80
2018-08-28T15:50:14.019Z,23.50
2018-08-28T15:55:17.264Z,23.50
2018-08-28T16:00:20.288Z,23.40
2018-08-28T16:05:23.318Z,23.30
2018-08-28T16:10:26.331Z,23.20
2018-08-28T16:15:29.398Z,23.20
2018-08-28T16:20:32.456Z,23.20
2018-08-28T16:25:35.590Z,23.30
2018-08-28T16:30:38.615Z,23.20
2018-08-28T16:35:41.655Z,23.20
2018-08-28T16:40:44.848Z,23.90
2018-08-28T16:45:47.911Z,24.60
2018-08-28T16:50:50.920Z,25.20
2018-08-28T16:55:54.070Z,24.80
2018-08-28T17:00:57.105Z,24.00
2018-08-28T17:06:00.364Z,24.10
2018-08-28T17:11:03.486Z,24.80
2018-08-28T17:16:06.656Z,25.70
2018-08-28T17:21:09.699Z,25.40
2018-08-28T17:26:13.797Z,24.40
2018-08-28T17:31:16.871Z,23.80
2018-08-28T17:36:20.017Z,23.40
2018-08-28T17:41:23.061Z,23.10
2018-08-28T17:46:26.137Z,22.90
2018-08-28T17:51:29.173Z,22.60
2018-08-28T17:56:32.224Z,22.40
2018-08-28T18:01:35.278Z,22.20
2018-08-28T18:06:38.281Z,22.00
2018-08-28T18:11:41.357Z,21.80
2018-08-28T18:16:44.461Z,21.60
2018-08-28T18:21:48.485Z,21.40
2018-08-28T18:26:51.704Z,21.20
2018-08-28T18:31:54.735Z,21.00
2018-08-28T18:36:57.751Z,20.90
2018-08-28T18:42:00.947Z,20.70
2018-08-28T18:47:03.987Z,20.50
2018-08-28T18:52:07.020Z,20.40
2018-08-28T18:57:10.096Z,20.30
2018-08-28T19:02:13.181Z,20.10
2018-08-28T19:07:16.656Z,20.00
2018-08-28T19:12:19.713Z,20.00
2018-08-28T19:17:22.789Z,19.80
2018-08-28T19:22:25.828Z,19.70
2018-08-28T19:27:28.845Z,19.50
2018-08-28T19:32:31.951Z,19.50
2018-08-28T19:37:35.220Z,19.40
2018-08-28T19:42:38.211Z,19.30
2018-08-28T19:47:41.474Z,19.20
2018-08-28T19:52:44.556Z,19.10
2018-08-28T19:57:47.641Z,19.00
2018-08-28T20:02:51.575Z,19.00
2018-08-28T20:07:55.841Z,18.90
2018-08-28T20:12:58.957Z,18.90
2018-08-28T20:18:02.018Z,18.80
2018-08-28T20:23:05.092Z,18.70
2018-08-28T20:28:08.156Z,18.70
2018-08-28T20:33:11.229Z,18.60
2018-08-28T20:38:14.407Z,18.50
2018-08-28T20:43:17.530Z,18.40
2018-08-28T20:48:20.568Z,18.40
2018-08-28T20:53:23.578Z,18.30
2018-08-28T20:58:26.674Z,18.20
2018-08-28T21:03:29.675Z,18.20
2018-08-28T21:08:32.704Z,18.10
2018-08-28T21:13:35.746Z,18.10
2018-08-28T21:18:39.338Z,18.00
2018-08-28T21:23:42.384Z,17.90
2018-08-28T21:28:45.417Z,17.80
2018-08-28T21:33:48.476Z,17.80
2018-08-28T21:38:51.520Z,17.70
2018-08-28T21:43:54.588Z,17.80
2018-08-28T21:48:57.623Z,17.60
2018-08-28T21:54:00.901Z,17.60
2018-08-28T21:59:03.935Z,17.50
2018-08-28T22:04:07.013Z,17.40
2018-08-28T22:09:10.047Z,17.40
2018-08-28T22:14:13.072Z,17.30
2018-08-28T22:19:16.109Z,17.20
2018-08-28T22:24:19.122Z,17.20
2018-08-28T22:29:22.147Z,17.20
2018-08-28T22:34:25.160Z,17.10
2018-08-28T22:39:28.178Z,17.10
2018-08-28T22:44:31.217Z,17.00
2018-08-28T22:49:34.247Z,17.00
2018-08-28T22:54:37.261Z,17.00
2018-08-28T22:59:40.262Z,16.90
2018-08-28T23:04:43.314Z,16.90
2018-08-28T23:09:46.315Z,16.80
2018-08-28T23:14:49.336Z,16.80
2018-08-28T23:19:52.359Z,16.70
2018-08-28T23:24:55.399Z,16.70
2018-08-28T23:29:58.407Z,16.70
2018-08-28T23:35:01.681Z,16.60
2018-08-28T23:40:04.755Z,16.60
2018-08-28T23:45:07.771Z,16.50
2018-08-28T23:50:10.802Z,16.50
2018-08-28T23:55:13.828Z,16.50
